Stations météo

réclame
Mon MeteoGroup
Polientes, Espagne (8033): Température de l'air & dewpoint: 16.07.2018 16:00:00 - 22.07.2018 16:00:00 (CEST)Polientes, Espagne (8033): Vitesse du vent & gusts: 16.07.2018 16:00:00 - 22.07.2018 16:00:00 (CEST)Polientes, Espagne (8033): Direction du vent: 16.07.2018 16:00:00 - 22.07.2018 16:00:00 (CEST)Polientes, Espagne (8033): Quantités de précipitations: 16.07.2018 16:00:00 - 22.07.2018 16:00:00 (CEST)
Date & Time tt [°C] td [°C] ff [km/h] ff [knt] fx [km/h] fx [knt] dd rr [mm]
22.07.2018 16:00:00 23,0 11,4 3 2 22 12 NNE 0,0
22.07.2018 15:00:00 22,6 11,3 5 3 17 9 NE 0,0
22.07.2018 14:00:00 23,1 12,1 4 2 18 10 ENE -
22.07.2018 13:00:00 20,3 10,6 6 3 18 10 ENE 0,0
22.07.2018 12:00:00 21,4 13,9 7 4 19 10 NE 0,0
22.07.2018 11:00:00 18,3 12,7 5 3 19 11 NE 0,0
22.07.2018 10:00:00 13,9 13,0 0 0 4 2 SSW 0,0
22.07.2018 09:00:00 12,4 11,7 1 1 5 3 WSW 0,0
22.07.2018 08:00:00 11,5 10,8 1 1 6 3 SSW -
22.07.2018 07:00:00 11,1 10,3 0 0 0 0 N 0,0
22.07.2018 06:00:00 10,6 9,8 0 0 4 2 N 0,0
22.07.2018 05:00:00 11,5 10,8 0 0 0 0 N 0,0
22.07.2018 04:00:00 11,5 10,8 0 0 0 0 N 0,0
22.07.2018 03:00:00 11,2 10,3 0 0 0 0 N 0,0
22.07.2018 02:00:00 11,9 11,0 0 0 0 0 N -
22.07.2018 01:00:00 12,4 11,3 0 0 3 1 N 0,0
22.07.2018 00:00:00 13,2 11,9 0 0 7 4 N 0,0
21.07.2018 23:00:00 14,5 12,7 0 0 6 3 NNW 0,0
21.07.2018 22:00:00 15,7 12,8 1 1 13 7 ESE 0,0
21.07.2018 21:00:00 16,5 12,8 6 4 18 10 NE 0,0
21.07.2018 20:00:00 17,7 13,7 5 3 14 7 NE -
21.07.2018 19:00:00 17,7 14,4 5 3 14 8 NE 0,0
21.07.2018 18:00:00 18,5 13,6 5 3 14 8 ENE 0,0
21.07.2018 17:00:00 19,6 9,4 0 0 7 4 NW 0,0
21.07.2018 16:00:00 20,0 8,9 2 1 12 6 W 0,0
21.07.2018 15:00:00 19,5 8,8 3 2 14 8 SSW 0,0
21.07.2018 14:00:00 20,1 8,8 3 1 10 5 W -
21.07.2018 13:00:00 19,7 9,3 1 0 9 5 SSW 0,0
21.07.2018 12:00:00 17,5 9,4 3 2 8 5 SW 0,0
21.07.2018 11:00:00 16,6 10,2 2 1 8 5 WSW 0,0
21.07.2018 10:00:00 14,3 10,2 3 1 7 4 SW 0,0
21.07.2018 09:00:00 11,1 10,2 1 0 4 2 SW 0,0
21.07.2018 08:00:00 9,7 9,0 0 0 0 0 N -
21.07.2018 07:00:00 8,6 7,8 0 0 2 1 N 0,0
21.07.2018 06:00:00 9,2 8,4 0 0 5 3 W 0,0
21.07.2018 05:00:00 9,9 9,2 0 0 0 0 N 0,0
21.07.2018 04:00:00 10,6 9,7 0 0 4 2 NW 0,0
21.07.2018 03:00:00 10,9 9,9 0 0 4 2 N 0,0
21.07.2018 02:00:00 11,0 9,9 1 0 4 2 SW -
21.07.2018 01:00:00 11,7 10,2 0 0 5 3 WSW 0,0
21.07.2018 00:00:00 12,4 10,4 1 0 11 6 NNE 0,0
20.07.2018 23:00:00 13,6 11,0 5 3 16 9 ENE 0,0
20.07.2018 22:00:00 14,1 10,9 6 3 21 11 NE 0,0
20.07.2018 21:00:00 14,8 12,1 6 3 26 14 NE 0,0
20.07.2018 20:00:00 16,1 10,6 10 5 28 15 NE -
20.07.2018 19:00:00 17,8 12,2 6 4 31 17 NE 0,0
20.07.2018 18:00:00 16,8 11,9 10 5 35 19 NE 0,0
20.07.2018 17:00:00 18,3 13,0 6 3 27 15 NE 0,0
20.07.2018 16:00:00 17,6 12,3 12 7 34 18 NE 0,0
20.07.2018 15:00:00 19,4 12,8 4 2 27 15 NNE 0,0
20.07.2018 14:00:00 19,7 13,2 8 5 27 15 NE -
20.07.2018 13:00:00 18,7 13,6 11 6 25 14 NE 0,0
20.07.2018 12:00:00 17,9 14,0 5 3 15 8 NE 0,0
20.07.2018 11:00:00 17,7 13,9 3 1 22 12 NNE 0,0
20.07.2018 10:00:00 17,0 13,6 6 3 18 10 NE 0,0
20.07.2018 09:00:00 16,1 13,9 5 3 16 9 NE 0,0
20.07.2018 08:00:00 15,6 13,7 4 2 13 7 NE -
20.07.2018 07:00:00 15,5 13,6 5 3 16 9 NE 0,0
20.07.2018 06:00:00 15,3 13,4 5 3 14 7 ENE 0,0
20.07.2018 05:00:00 15,6 13,7 4 2 19 10 NE 0,0
20.07.2018 04:00:00 15,6 13,7 4 2 12 7 NE 0,0
20.07.2018 03:00:00 15,8 13,9 3 2 16 9 ENE 0,0
20.07.2018 02:00:00 16,0 13,9 4 2 22 12 NNE -
20.07.2018 01:00:00 16,2 14,2 5 3 16 9 NE 0,0
20.07.2018 00:00:00 16,4 14,4 4 2 23 12 NE 0,0
19.07.2018 23:00:00 16,4 14,0 5 3 25 13 NE 0,0
19.07.2018 22:00:00 16,6 14,4 9 5 29 16 NE 0,0
19.07.2018 21:00:00 17,8 14,7 7 4 24 13 NE 0,0
19.07.2018 20:00:00 18,2 15,3 9 5 27 15 NE -
19.07.2018 19:00:00 19,7 15,2 10 5 36 20 NE 0,0
19.07.2018 18:00:00 22,7 16,0 6 4 24 13 NE 0,0
19.07.2018 17:00:00 22,3 14,9 8 5 28 15 NNE 0,0
19.07.2018 16:00:00 24,6 16,0 9 5 26 14 NNE 0,0
19.07.2018 15:00:00 26,2 16,1 6 3 18 10 NNE 0,0
19.07.2018 14:00:00 26,5 15,9 3 2 19 10 NNE -
19.07.2018 13:00:00 24,3 13,3 4 2 13 7 NE 0,0
19.07.2018 12:00:00 23,8 14,5 3 1 15 8 NNE 0,0
19.07.2018 11:00:00 21,9 14,0 4 2 18 10 ENE 0,0
19.07.2018 10:00:00 20,5 15,7 3 2 11 6 NE 0,0
19.07.2018 09:00:00 18,7 16,1 3 2 11 6 ENE 0,0
19.07.2018 08:00:00 17,6 16,1 1 0 6 3 NNE -
19.07.2018 07:00:00 17,6 16,1 0 0 8 5 NE 0,0
19.07.2018 06:00:00 17,7 16,2 1 1 6 4 NE 0,0
19.07.2018 05:00:00 17,8 16,3 1 1 9 5 E 0,0
19.07.2018 04:00:00 18,1 16,2 3 2 8 4 ENE 0,0
19.07.2018 03:00:00 18,3 16,3 4 2 13 7 NE 0,0
19.07.2018 02:00:00 18,4 16,4 2 1 12 6 NE -
19.07.2018 01:00:00 18,4 16,6 5 3 13 7 NE 0,0
19.07.2018 00:00:00 18,6 16,6 6 4 21 11 ENE 0,0
18.07.2018 23:00:00 18,6 16,6 8 4 19 10 ENE 0,0
18.07.2018 22:00:00 19,2 16,8 5 3 21 11 NE 0,0
18.07.2018 21:00:00 20,2 16,6 3 2 21 12 ENE 0,0
18.07.2018 20:00:00 21,8 16,3 7 4 25 13 NE -
18.07.2018 19:00:00 24,4 17,1 8 5 25 13 NE 0,0
18.07.2018 18:00:00 25,8 15,2 8 4 24 13 NNE 0,0
18.07.2018 17:00:00 28,2 10,9 1 0 8 5 NE 0,0
18.07.2018 16:00:00 27,2 12,0 1 1 19 10 N 0,0
18.07.2018 15:00:00 24,7 13,0 1 0 11 6 SSE 0,0
18.07.2018 14:00:00 21,1 17,7 1 1 8 4 NNE -
18.07.2018 13:00:00 20,4 14,5 1 1 10 5 SW 0,0
18.07.2018 12:00:00 19,0 16,0 2 1 7 4 E 0,0
18.07.2018 11:00:00 18,6 15,6 0 0 6 3 SE 0,0
18.07.2018 10:00:00 19,0 14,7 2 1 14 8 NE 0,0
18.07.2018 09:00:00 17,3 14,9 0 0 10 5 SE 0,0
18.07.2018 08:00:00 17,1 14,7 1 0 8 4 NNE -
18.07.2018 07:00:00 16,8 14,4 1 1 9 5 NE 0,0
18.07.2018 06:00:00 17,2 14,6 2 1 11 6 NE 0,0
18.07.2018 05:00:00 17,4 14,9 3 1 9 5 ENE 0,0
18.07.2018 04:00:00 17,5 15,0 3 2 15 8 ENE 0,0
18.07.2018 03:00:00 17,6 14,9 2 1 16 8 ENE 0,0
18.07.2018 02:00:00 17,5 14,8 4 2 18 10 NE -
18.07.2018 01:00:00 17,6 14,9 6 3 19 10 NE 0,0
18.07.2018 00:00:00 17,5 15,2 5 3 18 10 NE 0,0
17.07.2018 23:00:00 17,6 14,9 5 3 14 7 NE 0,0
17.07.2018 22:00:00 18,2 15,3 2 1 14 8 ENE 0,0
17.07.2018 21:00:00 18,6 15,1 4 2 19 11 E 0,0
17.07.2018 20:00:00 20,7 15,0 6 3 22 12 ENE -
17.07.2018 19:00:00 22,7 15,1 5 3 22 12 NE 0,0
17.07.2018 18:00:00 23,2 14,5 4 2 26 14 NNE 0,0
17.07.2018 17:00:00 25,8 14,6 6 3 21 12 NNE 0,0
17.07.2018 16:00:00 26,0 13,5 5 3 20 11 NNE 0,0
17.07.2018 15:00:00 25,0 12,5 6 4 17 9 NE 0,0
17.07.2018 14:00:00 24,8 13,7 5 3 16 9 ENE -
17.07.2018 13:00:00 22,5 11,9 4 2 17 9 NE 0,0
17.07.2018 12:00:00 21,3 12,2 6 3 16 8 NE 0,0
17.07.2018 11:00:00 15,2 11,8 1 1 8 4 S 0,0
17.07.2018 10:00:00 12,6 11,8 0 0 5 3 SE 0,0
17.07.2018 09:00:00 11,3 10,5 0 0 3 2 WSW 0,0
17.07.2018 08:00:00 10,5 9,7 0 0 1 1 NW -
17.07.2018 07:00:00 10,0 9,2 0 0 0 0 N 0,0
17.07.2018 06:00:00 9,9 9,2 0 0 2 1 NE 0,0
17.07.2018 05:00:00 10,1 9,3 0 0 3 2 N 0,0
17.07.2018 04:00:00 10,3 9,4 0 0 5 3 NNE 0,0
17.07.2018 03:00:00 10,9 9,9 0 0 0 0 N 0,0
17.07.2018 02:00:00 11,6 10,5 0 0 0 0 N -
17.07.2018 01:00:00 12,2 11,1 0 0 4 2 N 0,0
17.07.2018 00:00:00 13,3 11,9 0 0 6 4 NNE 0,0
16.07.2018 23:00:00 14,4 12,1 0 0 6 3 NE 0,0
16.07.2018 22:00:00 15,7 11,2 2 1 19 10 NE 0,0
16.07.2018 21:00:00 16,7 11,2 8 4 25 13 NNE 0,0
16.07.2018 20:00:00 18,5 12,0 6 3 25 14 NE -
16.07.2018 19:00:00 19,0 12,2 9 5 30 16 NE 0,0
16.07.2018 18:00:00 20,6 12,8 11 6 29 15 NE 0,0
16.07.2018 17:00:00 21,0 13,2 11 6 26 14 NE 0,0
16.07.2018 16:00:00 21,8 13,9 14 7 29 16 NE 0,0

tt = Température de l'air
td = dewpoint
ff = Vitesse du vent
fx = gusts
dd = Direction du vent
rr = Quantités de précipitations

stations d'obs. à proximité